createdAt,value
2023-02-17T00:01:30.213Z,14.60
2023-02-17T00:03:58.554Z,15.70
2023-02-17T00:06:28.789Z,17.80
2023-02-17T00:09:00.656Z,17.80
2023-02-17T00:11:30.284Z,15.20
2023-02-17T00:13:58.638Z,16.80
2023-02-17T00:16:27.334Z,17.90
2023-02-17T00:18:59.948Z,15.60
2023-02-17T00:21:29.707Z,16.90
2023-02-17T00:23:58.246Z,13.70
2023-02-17T00:26:26.380Z,16.30
2023-02-17T00:28:55.180Z,16.20
2023-02-17T00:31:25.078Z,15.90
2023-02-17T00:33:56.593Z,16.00
2023-02-17T00:36:25.589Z,15.80
2023-02-17T00:38:55.246Z,16.00
2023-02-17T00:41:23.824Z,17.10
2023-02-17T00:43:52.471Z,12.80
2023-02-17T00:46:20.871Z,15.10
2023-02-17T00:48:49.235Z,18.30
2023-02-17T00:51:18.165Z,14.40
2023-02-17T00:53:46.217Z,14.30
2023-02-17T00:56:14.718Z,17.10
2023-02-17T00:58:42.862Z,16.90
2023-02-17T01:01:11.786Z,16.20
2023-02-17T01:03:42.422Z,16.60
2023-02-17T01:06:16.727Z,16.10
2023-02-17T01:08:44.666Z,17.40
2023-02-17T01:11:19.274Z,17.70
2023-02-17T01:13:47.212Z,18.50
2023-02-17T01:16:19.998Z,16.80
2023-02-17T01:18:48.848Z,17.60
2023-02-17T01:21:20.974Z,16.10
2023-02-17T01:23:50.042Z,15.80
2023-02-17T01:26:19.942Z,16.70
2023-02-17T01:28:48.413Z,15.70
2023-02-17T01:31:16.861Z,15.50
2023-02-17T01:33:49.851Z,16.80
2023-02-17T01:36:18.580Z,15.10
2023-02-17T01:38:48.693Z,15.40
2023-02-17T01:41:20.657Z,14.70
2023-02-17T01:44:05.017Z,17.00
2023-02-17T01:46:46.054Z,15.00
2023-02-17T01:49:34.575Z,15.70
2023-02-17T01:52:08.850Z,14.60
2023-02-17T01:54:46.633Z,15.10
2023-02-17T01:57:16.559Z,16.50
2023-02-17T01:59:44.937Z,16.50
2023-02-17T02:02:13.289Z,16.20
2023-02-17T02:04:43.927Z,16.50
2023-02-17T02:07:14.748Z,17.50
2023-02-17T02:09:49.335Z,16.10
2023-02-17T02:12:37.967Z,14.80
2023-02-17T02:15:12.690Z,14.30
2023-02-17T02:18:07.939Z,14.50
2023-02-17T02:20:55.946Z,15.40
2023-02-17T02:24:02.070Z,15.90
2023-02-17T02:26:58.034Z,17.10
2023-02-17T02:29:54.818Z,16.40
2023-02-17T02:32:41.607Z,16.80
2023-02-17T02:35:21.846Z,14.20
2023-02-17T02:38:12.080Z,22.80
2023-02-17T02:40:46.353Z,20.40
2023-02-17T02:43:15.039Z,19.60
2023-02-17T02:45:43.402Z,20.20
2023-02-17T02:48:11.487Z,21.90
2023-02-17T02:51:01.591Z,21.30
2023-02-17T02:56:33.041Z,21.60
2023-02-17T02:59:23.340Z,21.50
2023-02-17T03:02:00.021Z,25.60
2023-02-17T03:04:36.768Z,24.40
2023-02-17T03:07:23.077Z,23.70
2023-02-17T03:09:52.551Z,23.00
2023-02-17T03:12:21.532Z,24.40
2023-02-17T03:14:51.067Z,25.70
2023-02-17T03:17:21.519Z,23.70
2023-02-17T03:19:51.563Z,21.60
2023-02-17T03:22:24.316Z,20.20
2023-02-17T03:24:52.582Z,21.30
2023-02-17T03:27:20.892Z,21.20
2023-02-17T03:29:49.620Z,21.20
2023-02-17T03:32:18.556Z,18.80
2023-02-17T03:34:46.598Z,20.10
2023-02-17T03:37:14.792Z,21.00
2023-02-17T03:39:42.969Z,20.30
2023-02-17T03:42:11.178Z,19.40
2023-02-17T03:44:39.416Z,20.50
2023-02-17T03:47:08.916Z,18.50
2023-02-17T03:49:36.891Z,20.70
2023-02-17T03:52:05.309Z,19.20
2023-02-17T03:54:34.071Z,19.40
2023-02-17T03:57:02.363Z,19.90
2023-02-17T03:59:31.325Z,18.30
2023-02-17T04:02:01.585Z,19.30
2023-02-17T04:04:29.821Z,18.30
2023-02-17T04:06:58.302Z,19.60
2023-02-17T04:09:32.804Z,20.10
2023-02-17T04:12:01.188Z,19.20
2023-02-17T04:14:29.485Z,19.80
2023-02-17T04:16:59.698Z,21.50
2023-02-17T04:19:27.760Z,19.40
2023-02-17T04:21:58.111Z,20.50
2023-02-17T04:24:26.377Z,21.40
2023-02-17T04:26:58.315Z,20.60
2023-02-17T04:29:26.395Z,22.30
2023-02-17T04:31:54.720Z,22.10
2023-02-17T04:34:22.740Z,21.40
2023-02-17T04:36:50.752Z,21.00
2023-02-17T04:39:19.081Z,20.10
2023-02-17T04:41:47.371Z,21.10
2023-02-17T04:44:15.860Z,21.00
2023-02-17T04:46:44.076Z,21.50
2023-02-17T04:49:12.248Z,22.30
2023-02-17T04:51:40.578Z,20.20
2023-02-17T04:54:09.079Z,21.60
2023-02-17T04:56:38.622Z,22.90
2023-02-17T04:59:07.563Z,22.30
2023-02-17T05:01:35.959Z,23.50
2023-02-17T05:04:08.413Z,22.80
2023-02-17T05:06:37.338Z,22.90
2023-02-17T05:09:06.232Z,19.50
2023-02-17T05:11:35.974Z,18.30
2023-02-17T05:14:04.570Z,18.60
2023-02-17T05:16:32.589Z,17.00
2023-02-17T05:19:00.652Z,16.90
2023-02-17T05:21:29.764Z,19.40
2023-02-17T05:23:57.802Z,18.50
2023-02-17T05:26:26.604Z,17.40
2023-02-17T05:28:56.730Z,19.80
2023-02-17T05:31:25.459Z,18.70
2023-02-17T05:33:54.931Z,20.70
2023-02-17T05:36:23.021Z,17.40
2023-02-17T05:38:52.051Z,17.00
2023-02-17T05:41:20.543Z,19.30
2023-02-17T05:43:49.434Z,21.30
2023-02-17T05:46:17.636Z,19.60
2023-02-17T05:48:46.077Z,20.70
2023-02-17T05:51:17.350Z,20.80
2023-02-17T05:53:45.458Z,20.40
2023-02-17T05:56:13.799Z,21.90
2023-02-17T05:58:47.401Z,18.50
2023-02-17T06:01:15.712Z,18.50
2023-02-17T06:03:43.734Z,17.60
2023-02-17T06:06:11.808Z,16.50
2023-02-17T06:08:40.776Z,18.40
2023-02-17T06:11:11.709Z,17.30
2023-02-17T06:13:40.920Z,17.70
2023-02-17T06:16:09.530Z,17.60
2023-02-17T06:18:39.335Z,15.10
2023-02-17T06:21:07.564Z,18.30
2023-02-17T06:23:36.706Z,25.40
2023-02-17T06:26:06.140Z,26.20
2023-02-17T06:28:35.193Z,16.90
2023-02-17T06:31:03.453Z,20.40
2023-02-17T06:33:31.732Z,25.70
2023-02-17T06:36:00.129Z,46.20
2023-02-17T06:38:29.550Z,30.00
2023-02-17T06:40:57.568Z,23.20
2023-02-17T06:43:26.382Z,24.50
2023-02-17T06:45:54.402Z,26.40
2023-02-17T06:48:23.060Z,26.90
2023-02-17T06:50:52.318Z,25.30
2023-02-17T06:53:21.352Z,61.20
2023-02-17T06:55:49.344Z,44.20
2023-02-17T06:58:18.822Z,21.60
2023-02-17T07:00:48.516Z,30.10
2023-02-17T07:03:16.808Z,21.90
2023-02-17T07:05:44.871Z,20.80
2023-02-17T07:08:13.195Z,20.80
2023-02-17T07:10:41.269Z,30.60
2023-02-17T07:13:09.735Z,130.80
2023-02-17T07:15:37.992Z,40.50
2023-02-17T07:18:06.192Z,22.80
2023-02-17T07:20:34.928Z,22.30
2023-02-17T07:23:03.074Z,19.80
2023-02-17T07:25:32.108Z,16.30
2023-02-17T07:28:00.283Z,16.30
2023-02-17T07:30:32.513Z,15.90
2023-02-17T07:33:00.692Z,18.50
2023-02-17T07:35:29.126Z,20.30
2023-02-17T07:37:59.020Z,48.10
2023-02-17T07:40:27.618Z,50.90
2023-02-17T07:42:57.409Z,23.10
2023-02-17T07:45:25.995Z,24.90
2023-02-17T07:47:54.512Z,20.30
2023-02-17T07:50:22.480Z,19.30
2023-02-17T07:52:51.163Z,18.50
2023-02-17T07:55:19.280Z,18.20
2023-02-17T07:57:47.256Z,18.70
2023-02-17T08:00:18.698Z,22.50
2023-02-17T08:02:48.618Z,19.50
2023-02-17T08:05:18.962Z,24.30
2023-02-17T08:07:47.869Z,44.00
2023-02-17T08:10:36.653Z,22.90
2023-02-17T08:13:21.076Z,20.60
2023-02-17T08:15:50.471Z,18.60
2023-02-17T08:18:18.981Z,17.70
2023-02-17T08:20:47.144Z,16.80
2023-02-17T08:23:15.534Z,18.80
2023-02-17T08:25:43.777Z,18.20
2023-02-17T08:28:12.267Z,20.10
2023-02-17T08:30:40.751Z,20.60
2023-02-17T08:33:08.984Z,19.50
2023-02-17T08:35:37.133Z,21.00
2023-02-17T08:38:05.560Z,16.90
2023-02-17T08:40:34.195Z,17.60
2023-02-17T08:43:03.656Z,19.80
2023-02-17T08:45:41.712Z,18.80
2023-02-17T08:48:09.887Z,19.60
2023-02-17T08:50:38.861Z,19.40
2023-02-17T08:53:07.147Z,19.90
2023-02-17T08:55:48.499Z,20.50
2023-02-17T08:58:18.908Z,19.30
2023-02-17T09:00:47.212Z,18.70
2023-02-17T09:03:17.183Z,45.80
2023-02-17T09:05:50.574Z,24.00
2023-02-17T09:08:19.977Z,17.50
2023-02-17T09:10:47.971Z,16.80
2023-02-17T09:13:17.682Z,17.90
2023-02-17T09:15:46.449Z,18.20
2023-02-17T09:18:22.496Z,20.40
2023-02-17T09:20:50.603Z,18.20
2023-02-17T09:23:18.780Z,17.80
2023-02-17T09:25:46.897Z,15.10
2023-02-17T09:28:15.625Z,14.70
2023-02-17T09:30:44.440Z,14.80
2023-02-17T09:33:13.344Z,16.10
2023-02-17T09:35:41.376Z,20.30
2023-02-17T09:38:10.434Z,17.40
2023-02-17T09:40:43.493Z,16.80
2023-02-17T09:43:14.320Z,14.40
2023-02-17T09:48:12.220Z,16.40
2023-02-17T09:50:56.903Z,15.80
2023-02-17T09:53:32.130Z,16.00
2023-02-17T09:56:02.006Z,17.20
2023-02-17T09:58:36.426Z,15.50
2023-02-17T10:01:11.334Z,17.20
2023-02-17T10:03:47.092Z,15.90
2023-02-17T10:06:18.564Z,15.30
2023-02-17T10:09:11.924Z,19.80
2023-02-17T10:11:46.036Z,15.40
2023-02-17T10:14:20.050Z,17.00
2023-02-17T10:17:16.577Z,16.10
2023-02-17T10:19:50.183Z,13.80
2023-02-17T10:22:20.493Z,14.20
2023-02-17T10:24:48.782Z,15.90
2023-02-17T10:27:36.373Z,14.70
2023-02-17T10:30:23.555Z,16.30
2023-02-17T10:33:02.446Z,15.90
2023-02-17T10:35:50.305Z,13.10
2023-02-17T10:38:29.079Z,16.40
2023-02-17T10:40:57.405Z,19.30
2023-02-17T10:43:27.205Z,18.20
2023-02-17T10:45:55.410Z,18.80
2023-02-17T10:48:27.255Z,18.00
2023-02-17T10:50:57.445Z,17.00
2023-02-17T10:53:28.377Z,17.40
2023-02-17T10:56:14.639Z,17.10
2023-02-17T10:58:46.357Z,19.00
2023-02-17T11:01:14.526Z,21.20
2023-02-17T11:03:42.778Z,22.40
2023-02-17T11:06:22.294Z,20.30
2023-02-17T11:08:53.296Z,18.40
2023-02-17T11:11:25.439Z,19.80
2023-02-17T11:14:04.378Z,18.30
2023-02-17T11:16:41.675Z,17.80
2023-02-17T11:19:31.262Z,19.70
2023-02-17T11:21:59.985Z,20.60
2023-02-17T11:24:29.026Z,18.30
2023-02-17T11:27:04.980Z,18.40
2023-02-17T11:29:35.106Z,21.50
2023-02-17T11:32:09.181Z,19.70
2023-02-17T11:34:39.141Z,22.00
2023-02-17T11:37:13.235Z,22.70
2023-02-17T11:39:43.237Z,19.70
2023-02-17T11:42:37.767Z,20.20
2023-02-17T11:45:18.829Z,17.70
2023-02-17T11:47:53.669Z,19.50
2023-02-17T11:50:41.995Z,19.40
2023-02-17T11:53:35.380Z,21.20
2023-02-17T11:56:11.523Z,22.20
2023-02-17T11:59:00.097Z,21.40
2023-02-17T12:01:31.034Z,23.50
2023-02-17T12:04:18.132Z,21.20
2023-02-17T12:06:58.708Z,20.50
2023-02-17T12:09:37.502Z,22.70
2023-02-17T12:12:17.704Z,21.30
2023-02-17T12:15:04.481Z,21.20
2023-02-17T12:17:51.274Z,21.60
2023-02-17T12:20:40.701Z,21.80
2023-02-17T12:23:24.295Z,30.00
2023-02-17T12:26:11.678Z,23.60
2023-02-17T12:28:58.295Z,22.00
2023-02-17T12:31:55.460Z,18.80
2023-02-17T12:34:37.188Z,20.60
2023-02-17T12:37:06.186Z,23.50
2023-02-17T12:39:43.475Z,19.30
2023-02-17T12:42:17.706Z,22.90
2023-02-17T12:44:58.750Z,22.00
2023-02-17T12:50:03.595Z,21.30
2023-02-17T12:52:39.059Z,21.80
2023-02-17T12:55:22.196Z,21.50
2023-02-17T12:57:58.152Z,24.60
2023-02-17T13:00:48.731Z,22.60
2023-02-17T13:03:16.899Z,23.80
2023-02-17T13:05:59.828Z,24.70
2023-02-17T13:08:45.424Z,25.00
2023-02-17T13:11:25.765Z,20.70
2023-02-17T13:13:53.690Z,22.90
2023-02-17T13:16:22.517Z,24.10
2023-02-17T13:18:51.556Z,24.60
2023-02-17T13:21:27.774Z,25.50
2023-02-17T13:24:16.101Z,23.60
2023-02-17T13:26:44.539Z,26.30
2023-02-17T13:29:22.027Z,25.20
2023-02-17T13:31:53.809Z,24.90
2023-02-17T13:34:29.920Z,25.50
2023-02-17T13:36:57.885Z,26.50
2023-02-17T13:39:28.727Z,26.20
2023-02-17T13:41:58.862Z,26.30
2023-02-17T13:44:33.809Z,27.80
2023-02-17T13:47:05.805Z,27.60
2023-02-17T13:49:35.268Z,26.00
2023-02-17T13:52:11.398Z,27.30
2023-02-17T13:54:42.005Z,24.10
2023-02-17T13:57:22.939Z,26.50
2023-02-17T14:02:35.165Z,23.40
2023-02-17T14:05:12.097Z,25.50
2023-02-17T14:07:40.059Z,25.90
2023-02-17T14:10:17.730Z,27.20
2023-02-17T14:12:49.328Z,27.50
2023-02-17T14:15:20.750Z,25.10
2023-02-17T14:17:49.307Z,25.50
2023-02-17T14:20:33.144Z,28.20
2023-02-17T14:23:05.165Z,26.40
2023-02-17T14:25:35.839Z,26.30
2023-02-17T14:28:04.294Z,27.20
2023-02-17T14:30:38.418Z,28.50
2023-02-17T14:33:16.350Z,33.00
2023-02-17T14:35:59.417Z,28.80
2023-02-17T14:38:37.513Z,26.40
2023-02-17T14:41:06.993Z,27.50
2023-02-17T14:43:36.856Z,35.40
2023-02-17T14:46:05.307Z,27.00
2023-02-17T14:48:33.913Z,27.10
2023-02-17T14:51:02.173Z,27.80
2023-02-17T14:53:33.571Z,25.50
2023-02-17T14:56:04.780Z,28.40
2023-02-17T14:58:35.573Z,25.70
2023-02-17T15:01:03.564Z,28.60
2023-02-17T15:03:33.786Z,26.30
2023-02-17T15:06:02.483Z,27.60
2023-02-17T15:08:34.495Z,30.50
2023-02-17T15:13:01.990Z,28.60
2023-02-17T15:15:39.309Z,26.60
2023-02-17T15:18:07.991Z,28.90
2023-02-17T15:20:36.944Z,30.20
2023-02-17T15:23:10.568Z,34.30
2023-02-17T15:25:41.515Z,30.60
2023-02-17T15:28:16.488Z,27.20
2023-02-17T15:30:47.756Z,31.90
2023-02-17T15:33:16.697Z,29.20
2023-02-17T15:35:50.829Z,29.70
2023-02-17T15:38:18.880Z,30.20
2023-02-17T15:40:46.849Z,30.00
2023-02-17T15:43:19.523Z,27.60
2023-02-17T15:45:47.694Z,31.20
2023-02-17T15:48:24.300Z,29.60
2023-02-17T15:50:53.323Z,33.30
2023-02-17T15:53:21.484Z,29.20
2023-02-17T15:55:52.515Z,27.10
2023-02-17T16:00:51.446Z,29.60
2023-02-17T16:03:19.868Z,28.40
2023-02-17T16:05:48.614Z,31.30
2023-02-17T16:08:17.264Z,35.30
2023-02-17T16:13:19.887Z,158.10
2023-02-17T16:15:49.085Z,48.90
2023-02-17T16:18:21.275Z,47.10
2023-02-17T16:20:50.585Z,37.70
2023-02-17T16:23:19.600Z,71.90
2023-02-17T16:25:48.568Z,47.50
2023-02-17T16:28:21.322Z,40.00
2023-02-17T16:30:49.742Z,41.60
2023-02-17T16:33:18.430Z,38.20
2023-02-17T16:35:47.226Z,39.70
2023-02-17T16:38:19.863Z,40.20
2023-02-17T16:40:50.950Z,41.80
2023-02-17T16:43:23.556Z,34.50
2023-02-17T16:46:01.412Z,38.30
2023-02-17T16:48:31.755Z,39.10
2023-02-17T16:51:03.229Z,43.40
2023-02-17T16:53:32.851Z,40.20
2023-02-17T16:56:01.094Z,42.90
2023-02-17T16:58:29.565Z,40.60
2023-02-17T17:00:57.904Z,40.00
2023-02-17T17:03:26.079Z,43.10
2023-02-17T17:05:55.311Z,41.80
2023-02-17T17:08:23.572Z,41.10
2023-02-17T17:10:53.421Z,40.90
2023-02-17T17:13:22.544Z,40.20
2023-02-17T17:15:50.521Z,42.60
2023-02-17T17:18:21.029Z,36.10
2023-02-17T17:20:49.152Z,39.70
2023-02-17T17:23:20.191Z,41.20
2023-02-17T17:25:48.804Z,41.70
2023-02-17T17:28:19.052Z,39.90
2023-02-17T17:30:47.491Z,40.00
2023-02-17T17:33:16.415Z,39.00
2023-02-17T17:35:44.637Z,38.40
2023-02-17T17:38:14.040Z,39.20
2023-02-17T17:40:53.518Z,39.30
2023-02-17T17:43:23.540Z,64.80
2023-02-17T17:45:51.881Z,46.10
2023-02-17T17:48:20.516Z,44.00
2023-02-17T17:50:49.530Z,48.10
2023-02-17T17:53:18.672Z,49.20
2023-02-17T17:55:47.669Z,40.80
2023-02-17T17:58:17.292Z,37.80
2023-02-17T18:00:49.239Z,39.30
2023-02-17T18:03:17.414Z,39.10
2023-02-17T18:05:45.580Z,40.00
2023-02-17T18:08:14.220Z,46.00
2023-02-17T18:10:42.536Z,43.50
2023-02-17T18:13:16.690Z,40.10
2023-02-17T18:15:45.080Z,46.10
2023-02-17T18:18:13.972Z,38.20
2023-02-17T18:20:42.509Z,42.10
2023-02-17T18:23:10.463Z,38.20
2023-02-17T18:25:40.054Z,44.80
2023-02-17T18:28:08.125Z,45.80
2023-02-17T18:30:37.077Z,41.60
2023-02-17T18:33:07.662Z,42.40
2023-02-17T18:35:36.710Z,34.90
2023-02-17T18:38:05.160Z,43.60
2023-02-17T18:40:40.564Z,44.10
2023-02-17T18:43:09.899Z,39.80
2023-02-17T18:45:37.929Z,47.30
2023-02-17T18:48:06.032Z,39.00
2023-02-17T18:50:35.159Z,52.50
2023-02-17T18:53:05.278Z,41.10
2023-02-17T18:55:36.697Z,42.90
2023-02-17T18:58:05.382Z,43.50
2023-02-17T19:00:33.702Z,45.40
2023-02-17T19:03:04.845Z,41.50
2023-02-17T19:05:33.689Z,47.70
2023-02-17T19:08:08.675Z,45.80
2023-02-17T19:10:36.847Z,49.80
2023-02-17T19:13:04.825Z,45.10
2023-02-17T19:15:33.868Z,37.80
2023-02-17T19:18:02.170Z,32.40
2023-02-17T19:20:34.003Z,40.50
2023-02-17T19:23:02.902Z,42.40
2023-02-17T19:25:31.380Z,43.10
2023-02-17T19:27:59.549Z,43.40
2023-02-17T19:30:28.592Z,40.10
2023-02-17T19:32:57.957Z,38.90
2023-02-17T19:35:25.909Z,36.20
2023-02-17T19:37:55.839Z,32.10
2023-02-17T19:40:24.408Z,43.80
2023-02-17T19:42:55.253Z,39.60
2023-02-17T19:45:23.439Z,46.70
2023-02-17T19:47:51.351Z,44.30
2023-02-17T19:50:20.317Z,39.80
2023-02-17T19:52:50.237Z,46.20
2023-02-17T19:55:20.997Z,34.60
2023-02-17T19:57:53.732Z,47.30
2023-02-17T20:00:22.110Z,43.30
2023-02-17T20:02:50.075Z,45.20
2023-02-17T20:05:18.911Z,46.10
2023-02-17T20:07:47.912Z,46.50
2023-02-17T20:10:16.730Z,44.50
2023-02-17T20:12:46.034Z,42.00
2023-02-17T20:15:14.328Z,43.60
2023-02-17T20:17:47.463Z,31.80
2023-02-17T20:20:16.385Z,40.80
2023-02-17T20:22:44.562Z,45.40
2023-02-17T20:25:13.055Z,44.90
2023-02-17T20:27:41.422Z,34.90
2023-02-17T20:30:11.277Z,40.50
2023-02-17T20:32:39.741Z,42.80
2023-02-17T20:35:08.711Z,31.60
2023-02-17T20:37:38.114Z,42.40
2023-02-17T20:40:08.404Z,29.30
2023-02-17T20:42:40.137Z,42.70
2023-02-17T20:45:08.801Z,40.70
2023-02-17T20:47:37.059Z,26.50
2023-02-17T20:50:10.327Z,43.70
2023-02-17T20:52:38.641Z,36.50
2023-02-17T20:55:08.030Z,40.30
2023-02-17T20:57:36.927Z,34.50
2023-02-17T21:00:06.504Z,36.00
2023-02-17T21:02:35.426Z,40.80
2023-02-17T21:05:03.738Z,37.10
2023-02-17T21:07:32.235Z,40.60
2023-02-17T21:10:02.517Z,35.50
2023-02-17T21:12:30.720Z,39.80
2023-02-17T21:14:58.769Z,40.90
2023-02-17T21:17:26.745Z,40.60
2023-02-17T21:19:55.373Z,34.80
2023-02-17T21:22:23.342Z,34.40
2023-02-17T21:24:52.018Z,37.80
2023-02-17T21:27:20.337Z,29.40
2023-02-17T21:29:48.414Z,31.80
2023-02-17T21:32:16.421Z,36.10
2023-02-17T21:34:44.950Z,30.30
2023-02-17T21:37:13.057Z,32.50
2023-02-17T21:39:41.212Z,34.00
2023-02-17T21:42:09.479Z,41.70
2023-02-17T21:44:53.446Z,40.30
2023-02-17T21:47:21.795Z,36.00
2023-02-17T21:49:53.449Z,41.30
2023-02-17T21:52:22.240Z,28.70
2023-02-17T21:54:51.833Z,42.50
2023-02-17T21:57:20.140Z,32.80
2023-02-17T21:59:53.762Z,38.20
2023-02-17T22:02:21.735Z,29.40
2023-02-17T22:04:49.930Z,41.20
2023-02-17T22:07:18.363Z,28.80
2023-02-17T22:09:46.652Z,41.00
2023-02-17T22:12:14.814Z,31.00
2023-02-17T22:14:43.250Z,38.00
2023-02-17T22:17:11.323Z,31.20
2023-02-17T22:19:39.929Z,36.60
2023-02-17T22:22:07.900Z,38.60
2023-02-17T22:24:37.714Z,37.20
2023-02-17T22:27:05.990Z,40.80
2023-02-17T22:29:35.012Z,36.60
2023-02-17T22:32:03.729Z,28.50
2023-02-17T22:34:32.472Z,28.20
2023-02-17T22:37:00.674Z,25.70
2023-02-17T22:39:28.913Z,37.10
2023-02-17T22:41:57.500Z,41.40
2023-02-17T22:44:25.773Z,34.00
2023-02-17T22:46:53.993Z,34.20
2023-02-17T22:49:22.208Z,42.00
2023-02-17T22:51:50.348Z,35.90
2023-02-17T22:54:18.720Z,40.30
2023-02-17T22:56:48.277Z,41.30
2023-02-17T22:59:16.862Z,40.20
2023-02-17T23:01:46.348Z,40.70
2023-02-17T23:04:15.673Z,44.60
2023-02-17T23:06:43.957Z,42.40
2023-02-17T23:09:15.292Z,38.70
2023-02-17T23:11:57.790Z,36.70
2023-02-17T23:14:28.566Z,37.10
2023-02-17T23:16:59.491Z,36.30
2023-02-17T23:19:28.572Z,40.70
2023-02-17T23:21:58.809Z,26.20
2023-02-17T23:24:30.500Z,41.40
2023-02-17T23:27:01.523Z,42.00
2023-02-17T23:29:30.834Z,42.70
2023-02-17T23:31:59.096Z,40.90
2023-02-17T23:34:28.238Z,28.50
2023-02-17T23:36:56.648Z,43.20
2023-02-17T23:39:24.825Z,41.90
2023-02-17T23:41:56.387Z,37.10
2023-02-17T23:44:24.755Z,34.40
2023-02-17T23:46:52.739Z,44.10
2023-02-17T23:49:21.843Z,43.00
2023-02-17T23:51:49.853Z,43.30
2023-02-17T23:54:18.164Z,43.50
2023-02-17T23:56:46.337Z,44.00
2023-02-17T23:59:14.625Z,37.30
